Time;durP1;ratioP1;P1;durP2;ratioP2;P2;SDS_P1;SDS_P2;PMS_P1;PMS_P2;Temp;Humidity;BMP_temperature;BMP_pressure;BME280_temperature;BME280_humidity;BME280_pressure;Samples;Min_cycle;Max_cycle;Signal;HPM_P1;HPM_P2
2022/04/21 00:00:47;;;;;;;6.50;3.10;;;;;;;12.79;58.93;100951.19;7389828;19;20003;-64
2022/04/21 00:03:16;;;;;;;6.30;2.95;;;;;;;12.80;59.24;100947.53;7389070;19;20010;-67
2022/04/21 00:05:42;;;;;;;10.05;2.70;;;;;;;12.77;60.26;100951.34;7390301;19;20015;-68
2022/04/21 00:08:10;;;;;;;8.18;2.88;;;;;;;12.74;59.62;100943.75;7389000;19;20481;-66
2022/04/21 00:10:37;;;;;;;8.38;3.30;;;;;;;12.74;59.50;100942.94;7387748;19;20058;-67
2022/04/21 00:13:05;;;;;;;11.65;2.53;;;;;;;12.68;60.39;100939.13;7386019;19;20028;-64
2022/04/21 00:15:32;;;;;;;8.30;2.42;;;;;;;12.66;60.36;100937.63;7389272;19;20015;-64
2022/04/21 00:18:00;;;;;;;6.78;2.47;;;;;;;12.63;60.85;100945.88;7389343;19;20011;-64
2022/04/21 00:20:27;;;;;;;8.70;2.65;;;;;;;12.59;60.87;100939.28;7391308;19;20017;-65
2022/04/21 00:25:39;;;;;;;6.25;2.70;;;;;;;12.56;61.70;100942.22;7386502;19;20014;-65
2022/04/21 00:28:06;;;;;;;7.63;2.42;;;;;;;12.54;61.34;100937.13;7391091;19;20113;-67
2022/04/21 00:30:33;;;;;;;10.82;2.40;;;;;;;12.52;61.56;100936.47;7387468;19;20010;-65
2022/04/21 00:33:00;;;;;;;5.72;2.40;;;;;;;12.47;62.22;100935.28;7385825;19;20007;-67
2022/04/21 00:35:27;;;;;;;8.02;2.65;;;;;;;12.42;62.75;100930.50;7387123;19;20098;-65
2022/04/21 00:37:56;;;;;;;10.02;2.67;;;;;;;12.34;62.83;100920.75;7386639;19;20010;-64
2022/04/21 00:40:26;;;;;;;12.88;2.83;;;;;;;12.30;63.49;100915.94;7386322;19;20453;-66
2022/04/21 00:42:54;;;;;;;10.35;3.05;;;;;;;12.27;64.24;100917.13;7385611;19;20018;-66
2022/04/21 00:45:22;;;;;;;6.70;2.70;;;;;;;12.28;64.09;100917.94;7386316;19;20030;-65
2022/04/21 00:47:50;;;;;;;8.75;2.72;;;;;;;12.24;64.13;100921.91;7388813;19;20472;-66
2022/04/21 00:50:22;;;;;;;6.15;2.60;;;;;;;12.24;63.97;100916.63;7386371;19;20635;-66
2022/04/21 00:52:54;;;;;;;6.07;2.42;;;;;;;12.22;65.35;100911.50;7390602;19;20034;-65
2022/04/21 00:55:22;;;;;;;10.90;2.72;;;;;;;12.28;64.37;100910.84;7385151;19;20436;-66
2022/04/21 00:57:52;;;;;;;9.60;2.58;;;;;;;12.30;64.50;100910.69;7386526;19;20442;-66
2022/04/21 01:00:20;;;;;;;7.40;2.90;;;;;;;12.28;65.54;100905.56;7388795;19;20022;-66
2022/04/21 01:02:47;;;;;;;6.93;2.80;;;;;;;12.24;65.34;100911.34;7387051;19;20014;-66
2022/04/21 01:05:32;;;;;;;12.57;3.17;;;;;;;12.24;64.93;100906.06;7389438;19;20030;-67
2022/04/21 01:08:06;;;;;;;8.20;2.63;;;;;;;12.26;65.58;100901.44;7388656;19;20031;-66
2022/04/21 01:10:34;;;;;;;9.85;3.00;;;;;;;12.27;65.51;100903.09;7384997;19;20465;-66
2022/04/21 01:13:06;;;;;;;5.80;2.28;;;;;;;12.22;65.53;100895.66;7388019;19;20018;-65
2022/04/21 01:15:35;;;;;;;8.82;2.40;;;;;;;12.16;65.79;100895.47;7386494;19;20013;-66
2022/04/21 01:18:03;;;;;;;9.32;2.95;;;;;;;12.06;66.73;100894.78;7386801;19;20018;-65
2022/04/21 01:20:30;;;;;;;7.03;2.50;;;;;;;12.05;66.85;100886.06;7386090;19;20252;-66
2022/04/21 01:22:57;;;;;;;6.50;2.25;;;;;;;11.98;66.66;100885.91;7388933;19;20011;-64
2022/04/21 01:25:24;;;;;;;12.07;2.50;;;;;;;12.03;67.23;100881.94;7385178;19;20007;-66
2022/04/21 01:28:03;;;;;;;9.45;2.97;;;;;;;12.05;67.89;100878.13;7385250;19;20042;-65
2022/04/21 01:30:33;;;;;;;8.88;2.60;;;;;;;12.01;66.88;100876.81;7384797;19;20074;-67
2022/04/21 01:33:00;;;;;;;15.98;3.25;;;;;;;11.99;67.98;100878.78;7384578;19;20034;-65
2022/04/21 01:35:30;;;;;;;9.10;2.67;;;;;;;12.03;68.54;100866.13;7388691;19;20082;-67
2022/04/21 01:43:28;;;;;;;6.65;2.65;;;;;;;11.97;69.14;100859.69;7383357;19;20010;-65
2022/04/21 01:45:55;;;;;;;6.88;2.35;;;;;;;11.97;68.51;100857.03;7386299;19;20025;-65
2022/04/21 01:48:22;;;;;;;11.25;2.80;;;;;;;11.97;69.17;100857.88;7387314;19;20094;-67
2022/04/21 01:50:53;;;;;;;8.43;2.17;;;;;;;11.99;69.30;100852.41;7387129;19;20042;-66
2022/04/21 01:53:22;;;;;;;10.10;2.83;;;;;;;11.96;68.89;100845.66;7384383;19;20412;-66
2022/04/21 01:55:48;;;;;;;10.48;3.47;;;;;;;11.93;69.36;100853.91;7384516;19;20021;-65
2022/04/21 01:58:15;;;;;;;8.80;3.42;;;;;;;11.94;69.23;100852.06;7384484;19;20074;-67
2022/04/21 02:00:42;;;;;;;10.27;2.85;;;;;;;11.93;69.64;100858.34;7385559;19;20022;-67
2022/04/21 02:03:09;;;;;;;10.75;2.80;;;;;;;11.93;70.18;100846.00;7361871;19;20006;-66
2022/04/21 02:05:36;;;;;;;6.82;2.40;;;;;;;11.88;69.62;100845.66;7374736;19;20050;-67
2022/04/21 02:08:03;;;;;;;11.77;3.22;;;;;;;11.85;70.19;100843.31;7386337;19;20011;-62
2022/04/21 02:10:31;;;;;;;7.60;3.35;;;;;;;11.84;71.07;100846.94;7386197;19;20021;-63
2022/04/21 02:12:57;;;;;;;11.63;2.75;;;;;;;11.84;70.70;100844.31;7388043;19;20472;-68
2022/04/21 02:15:24;;;;;;;9.90;3.58;;;;;;;11.86;70.96;100849.41;7381812;19;20017;-65
2022/04/21 02:17:51;;;;;;;10.25;2.75;;;;;;;11.87;70.89;100846.63;7386148;19;20022;-65
2022/04/21 02:20:18;;;;;;;7.68;2.17;;;;;;;11.83;70.81;100842.69;7386215;19;20047;-63
2022/04/21 02:22:46;;;;;;;26.63;4.55;;;;;;;11.83;71.29;100844.47;7388857;19;20034;-65
2022/04/21 02:25:15;;;;;;;11.95;2.72;;;;;;;11.82;71.18;100842.81;7391219;19;20038;-65
2022/04/21 02:27:45;;;;;;;10.57;3.47;;;;;;;11.84;71.51;100846.09;7391357;19;20026;-66
2022/04/21 02:30:15;;;;;;;6.03;2.33;;;;;;;11.82;72.16;100837.56;7390725;19;20162;-66
2022/04/21 02:32:45;;;;;;;9.82;2.70;;;;;;;11.77;71.82;100840.66;7390466;19;20046;-64
2022/04/21 02:35:13;;;;;;;12.82;3.80;;;;;;;11.78;72.17;100839.69;7388172;19;20021;-66
2022/04/21 02:37:43;;;;;;;9.02;3.95;;;;;;;11.81;72.92;100833.25;7388255;19;20006;-66
2022/04/21 02:40:11;;;;;;;8.90;2.85;;;;;;;11.83;71.85;100839.22;7393993;19;20017;-64
2022/04/21 02:42:38;;;;;;;9.38;3.60;;;;;;;11.81;72.66;100834.09;7390628;19;20006;-66
2022/04/21 02:45:07;;;;;;;13.57;3.22;;;;;;;11.83;72.46;100832.13;7392582;19;20561;-64
2022/04/21 02:47:45;;;;;;;11.25;2.75;;;;;;;11.83;72.04;100826.03;7394006;19;20018;-64
2022/04/21 02:50:15;;;;;;;15.85;4.82;;;;;;;11.85;73.03;100831.94;7393730;19;20010;-65
2022/04/21 02:52:42;;;;;;;13.75;3.75;;;;;;;11.85;72.71;100826.69;7391693;19;20019;-67
2022/04/21 02:57:58;;;;;;;8.90;3.92;;;;;;;11.85;73.17;100822.22;7391878;19;20019;-67
2022/04/21 03:00:25;;;;;;;9.40;3.65;;;;;;;11.79;72.32;100829.94;7375643;19;20027;-68
2022/04/21 03:02:56;;;;;;;10.82;3.40;;;;;;;11.71;72.23;100825.47;7387002;19;20588;-65
2022/04/21 03:05:23;;;;;;;13.63;3.90;;;;;;;11.69;72.73;100816.03;7386439;19;20015;-65
2022/04/21 03:07:50;;;;;;;8.77;3.55;;;;;;;11.62;72.89;100818.53;7389375;19;20010;-67
2022/04/21 03:10:17;;;;;;;12.82;5.60;;;;;;;11.63;73.49;100819.34;7390183;19;20017;-67
2022/04/21 03:12:44;;;;;;;11.18;3.85;;;;;;;11.63;73.50;100821.97;7390259;19;20082;-67
2022/04/21 03:15:12;;;;;;;12.85;4.20;;;;;;;11.54;73.49;100819.31;7386955;19;20010;-66
2022/04/21 03:17:40;;;;;;;18.77;5.63;;;;;;;11.55;73.87;100818.31;7391780;19;20011;-67
2022/04/21 03:20:08;;;;;;;12.13;4.40;;;;;;;11.56;73.94;100817.34;7389714;19;20067;-66
2022/04/21 03:25:21;;;;;;;13.98;4.20;;;;;;;11.50;73.83;100812.69;7390477;19;20691;-66
2022/04/21 03:27:51;;;;;;;10.02;3.80;;;;;;;11.50;73.94;100820.59;7390728;19;20069;-66
2022/04/21 03:30:18;;;;;;;13.15;4.07;;;;;;;11.49;73.72;100816.31;7393311;19;20015;-64
2022/04/21 03:32:45;;;;;;;10.63;4.35;;;;;;;11.47;73.93;100820.13;7390542;19;20391;-67
2022/04/21 03:35:11;;;;;;;10.77;3.28;;;;;;;11.45;74.02;100814.16;7386896;19;20058;-66
2022/04/21 03:37:38;;;;;;;13.10;5.40;;;;;;;11.41;74.91;100811.03;7390115;19;20015;-65
2022/04/21 03:40:06;;;;;;;13.15;3.80;;;;;;;11.38;74.72;100813.13;7386865;19;20522;-65
2022/04/21 03:42:32;;;;;;;15.13;4.53;;;;;;;11.38;74.40;100813.13;7391554;19;20324;-65
2022/04/21 03:45:02;;;;;;;10.60;4.88;;;;;;;11.36;74.85;100805.41;7387191;19;20329;-67
2022/04/21 03:47:29;;;;;;;11.23;4.65;;;;;;;11.35;74.93;100806.38;7388716;19;20026;-65
2022/04/21 03:49:56;;;;;;;9.45;4.30;;;;;;;11.33;74.43;100803.06;7388252;19;20010;-67
2022/04/21 03:52:23;;;;;;;12.88;4.63;;;;;;;11.34;75.53;100799.47;7391165;19;20021;-65
2022/04/21 03:54:50;;;;;;;13.07;4.47;;;;;;;11.24;75.35;100801.41;7390932;19;20014;-64
2022/04/21 03:57:17;;;;;;;13.75;4.85;;;;;;;11.24;75.63;100800.56;7388407;19;20351;-65
2022/04/21 03:59:44;;;;;;;15.10;4.68;;;;;;;11.25;75.26;100800.41;7387735;19;20026;-67
2022/04/21 04:02:10;;;;;;;12.48;4.88;;;;;;;11.25;75.24;100796.94;7359137;19;20021;-67
2022/04/21 04:04:40;;;;;;;13.95;4.53;;;;;;;11.20;75.21;100799.22;7381796;19;20018;-64
2022/04/21 04:12:40;;;;;;;17.20;5.38;;;;;;;11.12;76.19;100802.66;7383231;19;20042;-66
2022/04/21 04:15:09;;;;;;;21.83;5.95;;;;;;;11.05;76.51;100796.38;7380094;19;20113;-64
2022/04/21 04:17:36;;;;;;;13.32;4.57;;;;;;;11.00;76.24;100796.00;7385670;19;20440;-66
2022/04/21 04:20:05;;;;;;;21.23;6.22;;;;;;;11.02;76.94;100810.66;7390240;19;20227;-65
2022/04/21 04:22:42;;;;;;;13.60;5.55;;;;;;;11.02;76.79;100794.06;7389093;19;20468;-64
2022/04/21 04:25:09;;;;;;;17.27;5.57;;;;;;;11.03;76.80;100800.94;7386396;19;20011;-67
2022/04/21 04:27:37;;;;;;;18.17;6.60;;;;;;;10.99;77.25;100807.50;7386680;19;20429;-64
2022/04/21 04:30:05;;;;;;;16.77;5.82;;;;;;;11.01;77.10;100800.31;7391282;19;20014;-65
2022/04/21 04:32:33;;;;;;;14.27;5.32;;;;;;;10.98;77.26;100801.41;7387246;19;20335;-64
2022/04/21 04:34:59;;;;;;;13.27;6.03;;;;;;;10.95;77.29;100801.75;7387651;19;20018;-66
2022/04/21 04:37:26;;;;;;;15.15;5.45;;;;;;;10.91;77.62;100800.41;7389620;19;20013;-65
2022/04/21 04:39:55;;;;;;;14.90;6.78;;;;;;;10.90;77.83;100801.38;7386787;19;20014;-65
2022/04/21 04:42:23;;;;;;;18.17;7.72;;;;;;;10.88;78.04;100807.78;7386477;19;20483;-65
2022/04/21 04:47:38;;;;;;;19.58;7.13;;;;;;;10.82;78.72;100811.03;7389421;19;20039;-63
2022/04/21 04:50:07;;;;;;;20.05;7.38;;;;;;;10.83;78.41;100802.97;7386453;19;20775;-67
2022/04/21 04:52:34;;;;;;;21.83;8.45;;;;;;;10.82;78.18;100803.16;7389795;19;20010;-64
2022/04/21 04:55:12;;;;;;;17.98;7.70;;;;;;;10.84;78.31;100803.81;7388065;19;20041;-64
2022/04/21 04:57:40;;;;;;;13.63;6.63;;;;;;;10.86;78.47;100804.50;7384245;19;20222;-65
2022/04/21 05:00:08;;;;;;;16.33;7.35;;;;;;;10.89;78.14;100797.09;7374136;19;20122;-66
2022/04/21 05:02:35;;;;;;;18.65;6.85;;;;;;;10.88;78.22;100800.69;7378320;19;20309;-66
2022/04/21 05:05:03;;;;;;;16.80;7.82;;;;;;;10.84;78.48;100803.81;7386026;19;20006;-65
2022/04/21 05:07:29;;;;;;;20.00;7.13;;;;;;;10.85;78.53;100794.94;7380692;19;20010;-67
2022/04/21 05:09:56;;;;;;;17.58;8.07;;;;;;;10.82;78.87;100792.63;7387542;19;20010;-67
2022/04/21 05:12:24;;;;;;;21.90;7.57;;;;;;;10.89;78.28;100781.31;7387779;19;20155;-64
2022/04/21 05:14:52;;;;;;;17.38;7.75;;;;;;;10.84;79.14;100782.75;7382345;19;20039;-65
2022/04/21 05:17:19;;;;;;;16.33;7.28;;;;;;;10.88;78.56;100789.34;7388531;19;20006;-65
2022/04/21 05:20:07;;;;;;;23.42;8.57;;;;;;;10.86;78.83;100788.69;7388542;19;20014;-67
2022/04/21 05:22:39;;;;;;;18.00;8.43;;;;;;;10.88;78.68;100792.81;7388726;19;20007;-66
2022/04/21 05:25:10;;;;;;;18.30;7.93;;;;;;;10.91;78.79;100779.34;7388245;19;20365;-65
2022/04/21 05:27:38;;;;;;;22.90;8.35;;;;;;;10.92;79.00;100782.81;7387907;19;20357;-67
2022/04/21 05:32:56;;;;;;;18.08;7.75;;;;;;;10.90;79.12;100779.50;7387678;19;20010;-64
2022/04/21 05:35:24;;;;;;;20.35;8.30;;;;;;;10.91;78.64;100792.50;7383949;19;20074;-66
2022/04/21 05:37:51;;;;;;;19.27;8.73;;;;;;;10.88;78.94;100786.72;7387427;19;20033;-66
2022/04/21 05:40:18;;;;;;;18.60;8.38;;;;;;;10.81;79.28;100791.78;7384916;19;20011;-65
2022/04/21 05:42:49;;;;;;;16.88;7.95;;;;;;;10.86;79.43;100791.34;7387577;19;20023;-64
2022/04/21 05:45:19;;;;;;;21.30;9.40;;;;;;;10.91;79.43;100789.06;7382415;19;20515;-67
2022/04/21 05:47:50;;;;;;;24.70;9.18;;;;;;;10.95;79.01;100788.59;7386237;19;20393;-65
2022/04/21 05:50:17;;;;;;;25.20;9.52;;;;;;;11.01;79.06;100792.41;7384013;19;20139;-64
2022/04/21 05:52:51;;;;;;;23.80;9.45;;;;;;;11.02;79.06;100786.16;7386689;19;20158;-65
2022/04/21 05:55:19;;;;;;;24.08;9.95;;;;;;;11.07;79.23;100783.88;7383323;19;20486;-67
2022/04/21 05:57:46;;;;;;;26.75;9.85;;;;;;;11.12;78.91;100790.31;7391257;19;20459;-65
2022/04/21 06:00:13;;;;;;;20.30;11.30;;;;;;;11.11;78.82;100799.22;7392855;19;20497;-65
2022/04/21 06:02:40;;;;;;;22.65;10.30;;;;;;;11.14;78.62;100790.16;7391994;19;20435;-67
2022/04/21 06:05:07;;;;;;;23.15;9.75;;;;;;;11.17;78.55;100795.13;7394374;19;20015;-64
2022/04/21 06:07:34;;;;;;;28.52;10.90;;;;;;;11.14;78.66;100798.88;7392318;19;20385;-66
2022/04/21 06:10:02;;;;;;;25.05;10.77;;;;;;;11.22;79.09;100806.00;7391593;19;20483;-64
2022/04/21 06:12:29;;;;;;;22.08;11.43;;;;;;;11.25;78.62;100803.06;7389225;19;20021;-65
2022/04/21 06:14:56;;;;;;;27.75;10.75;;;;;;;11.32;77.92;100798.81;7387809;19;20018;-66
2022/04/21 06:17:23;;;;;;;21.88;10.73;;;;;;;11.34;78.07;100794.19;7390954;19;20002;-64
2022/04/21 06:19:50;;;;;;;26.98;12.27;;;;;;;11.38;78.09;100800.78;7391293;19;20017;-63
2022/04/21 06:22:17;;;;;;;24.95;11.00;;;;;;;11.46;77.56;100802.66;7392134;19;20007;-66
2022/04/21 06:24:45;;;;;;;26.50;11.32;;;;;;;11.52;77.81;100799.38;7390587;19;20484;-66
2022/04/21 06:27:12;;;;;;;26.38;10.85;;;;;;;11.57;77.75;100794.44;7395090;19;20014;-66
2022/04/21 06:29:39;;;;;;;26.13;10.57;;;;;;;11.62;77.22;100797.44;7389150;19;20030;-66
2022/04/21 06:32:06;;;;;;;29.60;12.95;;;;;;;11.68;77.89;100801.25;7390712;19;20026;-67
2022/04/21 06:34:33;;;;;;;27.50;12.00;;;;;;;11.76;77.13;100796.84;7387461;19;20011;-69
2022/04/21 06:37:00;;;;;;;24.33;12.23;;;;;;;11.84;76.55;100799.47;7393104;19;20487;-66
2022/04/21 06:39:27;;;;;;;28.13;12.85;;;;;;;11.95;76.29;100798.34;7390506;19;20095;-65
2022/04/21 06:41:54;;;;;;;31.33;12.68;;;;;;;12.03;76.42;100797.56;7388434;19;20028;-66
2022/04/21 06:49:56;;;;;;;30.55;13.18;;;;;;;12.30;75.62;100798.06;7389846;19;20041;-67
2022/04/21 06:52:22;;;;;;;31.00;13.70;;;;;;;12.42;74.90;100799.38;7392132;19;20017;-65
2022/04/21 06:54:49;;;;;;;29.63;12.02;;;;;;;12.58;73.83;100798.56;7393473;19;20022;-65
2022/04/21 06:57:17;;;;;;;28.23;12.55;;;;;;;12.72;72.95;100800.50;7391614;19;20010;-66
2022/04/21 06:59:44;;;;;;;29.02;12.40;;;;;;;12.87;72.71;100798.00;7391755;19;20018;-68
2022/04/21 07:02:12;;;;;;;23.85;11.15;;;;;;;13.00;72.43;100800.97;7389905;19;20363;-67
2022/04/21 07:04:42;;;;;;;27.52;12.02;;;;;;;13.10;71.84;100795.47;7389704;19;20118;-65
2022/04/21 07:07:10;;;;;;;24.25;12.85;;;;;;;13.21;70.84;100790.66;7389720;19;20519;-68
2022/04/21 07:09:37;;;;;;;23.38;11.13;;;;;;;13.36;70.13;100800.53;7387024;19;20436;-66
2022/04/21 07:12:04;;;;;;;28.55;13.00;;;;;;;13.35;71.27;100798.91;7385859;19;20512;-66
2022/04/21 07:14:31;;;;;;;29.35;14.45;;;;;;;13.44;70.64;100795.22;7393395;19;20346;-65
2022/04/21 07:16:58;;;;;;;25.63;12.43;;;;;;;13.60;72.32;100795.97;7388587;19;20340;-66
2022/04/21 07:19:25;;;;;;;27.02;13.25;;;;;;;13.63;70.85;100797.44;7392998;19;20017;-66
2022/04/21 07:21:52;;;;;;;27.40;14.50;;;;;;;13.67;72.26;100798.72;7390204;19;20317;-65
2022/04/21 07:24:19;;;;;;;25.48;12.73;;;;;;;13.70;71.66;100801.03;7390935;19;20021;-66
2022/04/21 07:26:46;;;;;;;30.23;14.32;;;;;;;13.77;70.86;100798.50;7387530;19;20142;-64
2022/04/21 07:29:12;;;;;;;26.48;14.25;;;;;;;13.77;70.71;100794.03;7390829;19;20025;-65
2022/04/21 07:31:40;;;;;;;28.60;13.27;;;;;;;13.80;69.80;100801.63;7389137;19;20025;-66
2022/04/21 07:34:07;;;;;;;25.73;12.77;;;;;;;13.83;69.43;100806.56;7388757;19;20042;-66
2022/04/21 07:36:34;;;;;;;28.55;13.43;;;;;;;13.87;70.25;100801.75;7389802;19;20321;-67
2022/04/21 07:39:02;;;;;;;26.35;12.98;;;;;;;13.89;69.88;100807.69;7390980;19;20472;-66
2022/04/21 07:41:29;;;;;;;24.88;11.93;;;;;;;13.92;68.63;100805.50;7392966;19;20015;-64
2022/04/21 07:43:56;;;;;;;27.05;12.13;;;;;;;14.03;67.73;100810.41;7392422;19;20015;-64
2022/04/21 07:46:23;;;;;;;22.13;11.93;;;;;;;14.18;67.70;100812.28;7390096;19;20018;-64
2022/04/21 07:51:35;;;;;;;27.92;12.57;;;;;;;15.30;65.15;100814.91;7390095;19;20021;-66
2022/04/21 07:54:02;;;;;;;26.05;11.70;;;;;;;15.67;61.50;100806.84;7388917;19;20125;-65
2022/04/21 07:56:29;;;;;;;22.73;10.55;;;;;;;15.88;61.41;100803.41;7387117;19;20323;-66
2022/04/21 07:58:56;;;;;;;30.33;12.18;;;;;;;16.01;61.71;100808.84;7388013;19;20014;-66
2022/04/21 08:01:23;;;;;;;20.48;11.00;;;;;;;16.23;60.41;100807.84;7391801;19;20011;-64
2022/04/21 08:03:50;;;;;;;22.73;10.82;;;;;;;16.63;58.74;100814.34;7387959;19;20034;-66
2022/04/21 08:06:17;;;;;;;20.63;10.27;;;;;;;16.81;57.38;100803.22;7385841;19;20032;-65
2022/04/21 08:08:50;;;;;;;26.83;11.52;;;;;;;16.58;58.42;100811.44;7385557;19;20623;-67
2022/04/21 08:11:17;;;;;;;21.98;10.30;;;;;;;16.46;58.89;100814.75;7387696;19;20252;-65
2022/04/21 08:13:44;;;;;;;21.90;10.48;;;;;;;16.38;58.45;100818.41;7385542;19;20006;-64
2022/04/21 08:16:11;;;;;;;19.20;10.57;;;;;;;16.24;58.65;100817.47;7385646;19;20461;-65
2022/04/21 08:18:38;;;;;;;20.40;11.43;;;;;;;16.03;59.22;100814.78;7387154;19;20389;-65
2022/04/21 08:21:07;;;;;;;23.65;10.93;;;;;;;15.94;59.74;100807.97;7386690;19;20011;-66
2022/04/21 08:32:33;;;;;;;23.67;10.40;;;;;;;15.86;59.82;100810.72;7387757;19;20295;-66
2022/04/21 08:32:54;;;;;;;25.45;9.65;;;;;;;15.58;61.43;100812.44;7387123;19;20003;-63
2022/04/21 08:35:21;;;;;;;19.63;10.27;;;;;;;15.55;62.06;100803.00;7386380;19;20078;-64
2022/04/21 08:37:50;;;;;;;20.38;9.13;;;;;;;15.55;61.38;100803.00;7386671;19;20429;-66
2022/04/21 08:40:18;;;;;;;21.02;9.52;;;;;;;15.60;59.84;100797.97;7387073;19;20373;-66
2022/04/21 08:43:17;;;;;;;16.75;9.52;;;;;;;15.64;59.55;100801.91;7418248;19;20351;-68
2022/04/21 08:45:45;;;;;;;23.95;9.20;;;;;;;15.68;59.06;100805.00;7420940;19;20014;-64
2022/04/21 08:48:14;;;;;;;18.23;8.63;;;;;;;15.72;59.35;100799.16;7421435;19;20007;-66
2022/04/21 08:50:41;;;;;;;14.57;7.78;;;;;;;15.79;57.35;100808.00;7419680;19;20022;-67
2022/04/21 08:53:10;;;;;;;15.90;8.10;;;;;;;15.83;56.47;100803.16;7420158;19;20036;-66
2022/04/21 08:55:38;;;;;;;18.05;8.40;;;;;;;15.89;56.40;100805.06;7421190;19;20115;-66
2022/04/21 08:58:05;;;;;;;18.10;7.43;;;;;;;15.95;55.24;100809.59;7420376;19;20436;-66
2022/04/21 09:00:32;;;;;;;16.88;7.47;;;;;;;16.00;55.54;100809.03;7421148;19;20002;-67
2022/04/21 09:03:05;;;;;;;16.88;7.00;;;;;;;16.05;55.66;100801.34;7420602;19;20020;-66
2022/04/21 09:05:32;;;;;;;16.65;5.97;;;;;;;16.15;53.66;100797.34;7424369;19;20090;-66
2022/04/21 09:08:00;;;;;;;18.60;7.00;;;;;;;16.22;53.66;100808.03;7421640;19;20132;-67
2022/04/21 09:11:00;;;;;;;19.10;7.43;;;;;;;16.30;54.01;100802.59;7421598;19;20026;-66
2022/04/21 09:13:33;;;;;;;15.65;6.70;;;;;;;16.37;53.50;100803.47;7423061;19;20439;-66
2022/04/21 09:16:05;;;;;;;15.23;6.55;;;;;;;16.46;53.19;100798.81;7422229;19;20048;-66
2022/04/21 09:18:36;;;;;;;13.85;6.25;;;;;;;16.58;52.95;100799.97;7418211;19;20016;-65
2022/04/21 09:21:14;;;;;;;15.15;6.63;;;;;;;16.57;52.44;100803.63;7418564;19;20021;-65
2022/04/21 09:23:45;;;;;;;11.77;6.22;;;;;;;16.57;52.61;100785.84;7419068;19;20392;-67
2022/04/21 09:26:14;;;;;;;16.35;6.35;;;;;;;16.62;53.10;100796.75;7419275;19;20645;-65
2022/04/21 09:28:53;;;;;;;14.20;5.72;;;;;;;16.73;52.02;100800.72;7419170;19;20010;-66
2022/04/21 09:31:21;;;;;;;13.43;6.00;;;;;;;16.81;51.28;100797.91;7416385;19;20026;-66
2022/04/21 09:33:48;;;;;;;9.13;5.15;;;;;;;16.87;51.93;100793.66;7419340;19;20006;-64
2022/04/21 09:36:16;;;;;;;11.73;5.45;;;;;;;16.91;51.86;100797.59;7420052;19;20073;-65
2022/04/21 09:38:57;;;;;;;12.18;5.88;;;;;;;17.03;53.53;100799.50;7420812;19;20467;-65
2022/04/21 09:41:28;;;;;;;14.43;5.60;;;;;;;17.21;51.03;100798.16;7420963;19;20010;-66
2022/04/21 09:46:07;;;;;;;13.02;5.78;;;;;;;17.25;51.50;100800.22;7422165;19;20015;-66
2022/04/21 09:47:06;;;;;;;12.85;5.65;;;;;;;17.32;51.02;100797.63;7421572;19;20014;-65
2022/04/21 09:49:34;;;;;;;15.00;5.68;;;;;;;17.37;51.24;100789.88;7422472;19;20018;-63
2022/04/21 09:52:00;;;;;;;10.93;4.88;;;;;;;17.48;50.64;100794.59;7420495;19;20010;-66
2022/04/21 09:54:31;;;;;;;11.80;6.57;;;;;;;17.28;50.94;100791.84;7391745;19;20017;-66
2022/04/21 09:56:58;;;;;;;13.23;5.35;;;;;;;17.33;51.87;100796.56;7388007;19;20017;-66
2022/04/21 09:59:25;;;;;;;10.23;4.90;;;;;;;17.36;50.81;100790.88;7392612;19;20006;-65
2022/04/21 10:01:53;;;;;;;11.55;5.15;;;;;;;17.39;50.90;100795.78;7388222;19;20014;-67
2022/04/21 10:04:20;;;;;;;12.05;4.85;;;;;;;17.39;50.88;100793.94;7388681;19;20022;-65
2022/04/21 10:06:47;;;;;;;10.25;4.18;;;;;;;17.46;51.06;100784.16;7393632;19;20079;-66
2022/04/21 10:09:19;;;;;;;12.93;4.78;;;;;;;17.55;50.54;100790.13;7390473;19;20025;-65
2022/04/21 10:11:45;;;;;;;10.30;4.55;;;;;;;17.62;49.72;100785.69;7390470;19;20010;-65
2022/04/21 10:14:13;;;;;;;9.23;5.15;;;;;;;17.68;49.02;100790.19;7386755;19;20006;-66
2022/04/21 10:16:44;;;;;;;13.33;5.30;;;;;;;17.68;49.20;100787.53;7389467;19;20022;-65
2022/04/21 10:19:13;;;;;;;12.18;4.68;;;;;;;17.74;49.15;100792.06;7389068;19;20086;-66
2022/04/21 10:21:57;;;;;;;9.38;5.10;;;;;;;17.77;48.54;100793.53;7391690;19;20035;-67
2022/04/21 10:24:26;;;;;;;7.53;4.40;;;;;;;17.77;48.33;100786.34;7387255;19;20039;-64
2022/04/21 10:26:54;;;;;;;10.68;4.47;;;;;;;17.76;47.94;100783.88;7393248;19;20018;-63
2022/04/21 10:29:23;;;;;;;9.65;4.60;;;;;;;17.74;47.59;100783.25;7388865;19;20010;-67
2022/04/21 10:32:05;;;;;;;7.60;4.80;;;;;;;17.71;48.21;100783.66;7391860;19;20657;-67
2022/04/21 10:34:46;;;;;;;13.55;4.60;;;;;;;17.69;48.65;100781.19;7387338;19;20010;-66
2022/04/21 10:37:19;;;;;;;12.77;5.03;;;;;;;17.71;49.43;100781.00;7391756;19;20015;-65
2022/04/21 10:40:04;;;;;;;13.23;5.53;;;;;;;17.74;49.81;100785.91;7388708;19;20356;-66
2022/04/21 10:42:51;;;;;;;10.10;5.50;;;;;;;17.79;49.77;100800.28;7389558;19;20106;-66
2022/04/21 10:45:22;;;;;;;10.27;5.22;;;;;;;17.75;49.24;100801.69;7385728;19;20559;-63
2022/04/21 10:48:10;;;;;;;10.32;5.10;;;;;;;17.75;49.85;100788.38;7391815;19;20021;-64
2022/04/21 10:50:39;;;;;;;12.07;4.78;;;;;;;17.68;50.40;100800.00;7388474;19;20026;-67
2022/04/21 10:58:47;;;;;;;12.30;5.55;;;;;;;17.82;50.98;100802.53;7388542;19;20415;-67
2022/04/21 11:01:18;;;;;;;;;;;;;;;17.80;50.96;100785.13;7386698;19;20006;-67
2022/04/21 11:04:03;;;;;;;9.38;5.53;;;;;;;17.85;51.04;100775.50;7389009;19;19923;-64
2022/04/21 11:06:43;;;;;;;11.93;5.03;;;;;;;17.89;50.29;100775.91;7390945;19;20010;-65
2022/04/21 11:09:36;;;;;;;15.43;4.53;;;;;;;17.92;49.15;100776.34;7390310;19;20010;-66
2022/04/21 11:12:45;;;;;;;10.97;4.53;;;;;;;17.93;49.14;100790.47;7387848;19;20065;-65
2022/04/21 11:15:30;;;;;;;8.25;4.13;;;;;;;17.97;47.04;100783.72;7385821;19;20025;-62
2022/04/21 11:18:20;;;;;;;9.23;4.05;;;;;;;18.01;46.80;100773.50;7388364;19;20365;-64
2022/04/21 11:20:51;;;;;;;8.25;4.25;;;;;;;17.94;46.54;100776.13;7389556;19;20038;-65
2022/04/21 11:23:25;;;;;;;9.68;4.60;;;;;;;17.97;46.72;100772.25;7388988;19;20030;-66
2022/04/21 11:26:01;;;;;;;9.23;3.78;;;;;;;17.96;47.72;100774.09;7390526;19;20085;-66
2022/04/21 11:28:28;;;;;;;7.40;4.07;;;;;;;17.99;47.14;100771.03;7387875;19;20006;-67
2022/04/21 11:31:03;;;;;;;8.00;3.50;;;;;;;17.98;47.11;100768.59;7391236;19;20009;-67
2022/04/21 11:33:31;;;;;;;;;;;;;;;18.03;47.27;100766.13;7388809;19;20038;-66
2022/04/21 11:36:09;;;;;;;7.80;3.20;;;;;;;18.12;46.60;100764.91;7387959;19;20289;-66
2022/04/21 11:38:39;;;;;;;7.03;3.63;;;;;;;18.21;46.37;100764.50;7389823;19;20011;-64
2022/04/21 11:41:08;;;;;;;10.70;3.97;;;;;;;18.24;46.41;100756.09;7386872;19;20019;-65
2022/04/21 11:43:36;;;;;;;9.90;3.28;;;;;;;18.27;48.09;100761.03;7386457;19;20020;-66
2022/04/21 11:46:05;;;;;;;8.23;4.15;;;;;;;18.34;46.46;100771.66;7387993;19;20336;-66
2022/04/21 11:48:37;;;;;;;7.07;3.72;;;;;;;18.34;46.31;100759.16;7389879;19;20508;-66
2022/04/21 11:51:04;;;;;;;11.43;4.00;;;;;;;18.34;46.51;100758.34;7387008;19;20014;-65
2022/04/21 11:53:40;;;;;;;7.57;4.05;;;;;;;18.34;46.53;100767.16;7385349;19;20336;-65
2022/04/21 11:56:10;;;;;;;6.63;3.58;;;;;;;18.34;46.51;100759.16;7387390;19;20072;-66
2022/04/21 11:58:44;;;;;;;6.25;3.53;;;;;;;18.33;46.38;100746.88;7385469;19;20013;-65
2022/04/21 12:06:53;;;;;;;6.38;3.50;;;;;;;18.42;45.96;100744.81;7387870;19;20424;-67
2022/04/21 12:09:22;;;;;;;7.03;3.13;;;;;;;18.44;45.95;100736.63;7388819;19;20368;-65
2022/04/21 12:11:54;;;;;;;9.45;3.25;;;;;;;18.46;45.60;100745.22;7388570;19;20024;-65
2022/04/21 12:14:22;;;;;;;6.07;3.10;;;;;;;18.46;46.27;100734.56;7388963;19;20011;-67
2022/04/21 12:16:53;;;;;;;6.75;3.33;;;;;;;18.48;45.15;100735.19;7387799;19;20025;-68
2022/04/21 12:19:20;;;;;;;6.28;3.10;;;;;;;18.46;45.76;100743.38;7387850;19;20019;-65
2022/04/21 12:21:56;;;;;;;4.40;2.35;;;;;;;18.48;46.00;100740.53;7387621;19;20138;-66